Aviation Digital Data Service (ADDS)

Output produced by METARs form (0307 UTC 16 August 2018)
found at http://www.aviationweather.gov/adds/metars/
 
FEFF 160200Z VRB02KT CAVOK 23/22 Q1013 NOSIG
TAF FEFF 151700Z 1518/1624 VRB03KT 8000 TS BKN013 FEW033CB 
     BECMG 1518/1520 NSW SCT010 
     TEMPO 1603/1605 3000 BR BKN004 
     FM160900 21005KT 9999 SCT023